sensor_id;sensor_type;location;lat;lon;timestamp;P1;durP1;ratioP1;P2;durP2;ratioP2
75261;SDS011;63859;51.064;4.580;2023-11-19T00:02:23;14.07;;;3.53;;
75261;SDS011;63859;51.064;4.580;2023-11-19T00:04:48;9.25;;;3.25;;
75261;SDS011;63859;51.064;4.580;2023-11-19T00:07:14;7.43;;;3.05;;
75261;SDS011;63859;51.064;4.580;2023-11-19T00:09:40;6.75;;;2.90;;
75261;SDS011;63859;51.064;4.580;2023-11-19T00:12:06;8.35;;;3.47;;
75261;SDS011;63859;51.064;4.580;2023-11-19T00:14:35;8.98;;;3.10;;
75261;SDS011;63859;51.064;4.580;2023-11-19T00:17:01;10.13;;;2.72;;
75261;SDS011;63859;51.064;4.580;2023-11-19T00:19:26;13.38;;;3.75;;
75261;SDS011;63859;51.064;4.580;2023-11-19T00:21:52;7.30;;;3.00;;
75261;SDS011;63859;51.064;4.580;2023-11-19T00:24:18;14.02;;;3.20;;
75261;SDS011;63859;51.064;4.580;2023-11-19T00:26:44;10.27;;;3.45;;
75261;SDS011;63859;51.064;4.580;2023-11-19T00:29:10;10.35;;;3.45;;
75261;SDS011;63859;51.064;4.580;2023-11-19T00:31:36;13.93;;;3.22;;
75261;SDS011;63859;51.064;4.580;2023-11-19T00:34:01;8.93;;;3.20;;
75261;SDS011;63859;51.064;4.580;2023-11-19T00:36:27;13.18;;;3.35;;
75261;SDS011;63859;51.064;4.580;2023-11-19T00:38:53;12.30;;;3.00;;
75261;SDS011;63859;51.064;4.580;2023-11-19T00:41:20;11.45;;;3.20;;
75261;SDS011;63859;51.064;4.580;2023-11-19T00:43:46;19.20;;;4.13;;
75261;SDS011;63859;51.064;4.580;2023-11-19T00:46:12;13.50;;;3.28;;
75261;SDS011;63859;51.064;4.580;2023-11-19T00:48:38;15.05;;;4.00;;
75261;SDS011;63859;51.064;4.580;2023-11-19T00:51:04;17.55;;;3.80;;
75261;SDS011;63859;51.064;4.580;2023-11-19T00:53:30;17.75;;;3.47;;
75261;SDS011;63859;51.064;4.580;2023-11-19T00:55:57;16.33;;;3.30;;
75261;SDS011;63859;51.064;4.580;2023-11-19T00:58:23;14.88;;;4.10;;
75261;SDS011;63859;51.064;4.580;2023-11-19T01:00:48;14.25;;;3.45;;
75261;SDS011;63859;51.064;4.580;2023-11-19T01:03:14;12.30;;;3.15;;
75261;SDS011;63859;51.064;4.580;2023-11-19T01:05:41;13.05;;;3.47;;
75261;SDS011;63859;51.064;4.580;2023-11-19T01:08:07;19.65;;;3.80;;
75261;SDS011;63859;51.064;4.580;2023-11-19T01:10:33;15.32;;;3.30;;
75261;SDS011;63859;51.064;4.580;2023-11-19T01:12:59;18.08;;;3.35;;
75261;SDS011;63859;51.064;4.580;2023-11-19T01:15:24;13.30;;;3.63;;
75261;SDS011;63859;51.064;4.580;2023-11-19T01:17:51;18.55;;;3.42;;
75261;SDS011;63859;51.064;4.580;2023-11-19T01:20:17;16.92;;;4.03;;
75261;SDS011;63859;51.064;4.580;2023-11-19T01:22:43;20.27;;;3.75;;
75261;SDS011;63859;51.064;4.580;2023-11-19T01:25:09;19.92;;;3.65;;
75261;SDS011;63859;51.064;4.580;2023-11-19T01:27:35;19.77;;;4.28;;
75261;SDS011;63859;51.064;4.580;2023-11-19T01:30:01;19.55;;;3.95;;
75261;SDS011;63859;51.064;4.580;2023-11-19T01:32:31;20.95;;;4.03;;
75261;SDS011;63859;51.064;4.580;2023-11-19T01:34:57;17.67;;;4.10;;
75261;SDS011;63859;51.064;4.580;2023-11-19T01:37:23;20.05;;;3.80;;
75261;SDS011;63859;51.064;4.580;2023-11-19T01:39:48;22.83;;;4.53;;
75261;SDS011;63859;51.064;4.580;2023-11-19T01:42:14;20.88;;;4.07;;
75261;SDS011;63859;51.064;4.580;2023-11-19T01:44:40;22.27;;;3.90;;
75261;SDS011;63859;51.064;4.580;2023-11-19T01:47:06;21.95;;;3.53;;
75261;SDS011;63859;51.064;4.580;2023-11-19T01:49:33;18.92;;;3.92;;
75261;SDS011;63859;51.064;4.580;2023-11-19T01:51:59;23.08;;;4.00;;
75261;SDS011;63859;51.064;4.580;2023-11-19T01:54:25;28.85;;;4.57;;
75261;SDS011;63859;51.064;4.580;2023-11-19T01:56:53;21.80;;;3.97;;
75261;SDS011;63859;51.064;4.580;2023-11-19T01:59:21;30.60;;;5.00;;
75261;SDS011;63859;51.064;4.580;2023-11-19T02:01:51;24.13;;;4.53;;
75261;SDS011;63859;51.064;4.580;2023-11-19T02:04:19;34.80;;;5.05;;
75261;SDS011;63859;51.064;4.580;2023-11-19T02:06:45;23.63;;;3.83;;
75261;SDS011;63859;51.064;4.580;2023-11-19T02:09:17;25.05;;;4.57;;
75261;SDS011;63859;51.064;4.580;2023-11-19T02:11:44;15.70;;;3.15;;
75261;SDS011;63859;51.064;4.580;2023-11-19T02:14:14;27.50;;;4.93;;
75261;SDS011;63859;51.064;4.580;2023-11-19T02:16:40;23.58;;;4.40;;
75261;SDS011;63859;51.064;4.580;2023-11-19T02:19:06;24.98;;;4.82;;
75261;SDS011;63859;51.064;4.580;2023-11-19T02:21:33;29.73;;;5.03;;
75261;SDS011;63859;51.064;4.580;2023-11-19T02:23:59;33.70;;;4.90;;
75261;SDS011;63859;51.064;4.580;2023-11-19T02:26:36;23.15;;;4.45;;
75261;SDS011;63859;51.064;4.580;2023-11-19T02:29:15;24.30;;;4.00;;
75261;SDS011;63859;51.064;4.580;2023-11-19T02:31:41;28.33;;;4.88;;
75261;SDS011;63859;51.064;4.580;2023-11-19T02:34:07;25.15;;;4.57;;
75261;SDS011;63859;51.064;4.580;2023-11-19T02:36:32;31.08;;;4.38;;
75261;SDS011;63859;51.064;4.580;2023-11-19T02:38:58;25.33;;;4.63;;
75261;SDS011;63859;51.064;4.580;2023-11-19T02:41:24;28.17;;;4.90;;
75261;SDS011;63859;51.064;4.580;2023-11-19T02:43:50;26.13;;;4.75;;
75261;SDS011;63859;51.064;4.580;2023-11-19T02:46:16;24.55;;;4.68;;
75261;SDS011;63859;51.064;4.580;2023-11-19T02:48:42;26.38;;;4.30;;
75261;SDS011;63859;51.064;4.580;2023-11-19T02:51:09;28.75;;;5.20;;
75261;SDS011;63859;51.064;4.580;2023-11-19T02:53:35;25.55;;;4.53;;
75261;SDS011;63859;51.064;4.580;2023-11-19T02:56:02;29.02;;;5.05;;
75261;SDS011;63859;51.064;4.580;2023-11-19T02:58:36;26.70;;;4.68;;
75261;SDS011;63859;51.064;4.580;2023-11-19T03:01:03;27.95;;;4.72;;
75261;SDS011;63859;51.064;4.580;2023-11-19T03:03:37;28.63;;;5.18;;
75261;SDS011;63859;51.064;4.580;2023-11-19T03:06:05;37.75;;;4.97;;
75261;SDS011;63859;51.064;4.580;2023-11-19T03:08:32;33.85;;;5.25;;
75261;SDS011;63859;51.064;4.580;2023-11-19T03:11:00;29.40;;;4.35;;
75261;SDS011;63859;51.064;4.580;2023-11-19T03:13:26;28.83;;;5.35;;
75261;SDS011;63859;51.064;4.580;2023-11-19T03:15:52;31.65;;;4.63;;
75261;SDS011;63859;51.064;4.580;2023-11-19T03:18:18;29.15;;;4.78;;
75261;SDS011;63859;51.064;4.580;2023-11-19T03:20:45;22.40;;;4.10;;
75261;SDS011;63859;51.064;4.580;2023-11-19T03:23:11;28.80;;;4.95;;
75261;SDS011;63859;51.064;4.580;2023-11-19T03:25:37;30.05;;;4.43;;
75261;SDS011;63859;51.064;4.580;2023-11-19T03:28:03;24.92;;;5.30;;
75261;SDS011;63859;51.064;4.580;2023-11-19T03:30:29;27.35;;;4.25;;
75261;SDS011;63859;51.064;4.580;2023-11-19T03:32:56;25.17;;;4.75;;
75261;SDS011;63859;51.064;4.580;2023-11-19T03:35:22;29.10;;;4.53;;
75261;SDS011;63859;51.064;4.580;2023-11-19T03:37:48;35.67;;;6.20;;
75261;SDS011;63859;51.064;4.580;2023-11-19T03:40:14;28.85;;;5.30;;
75261;SDS011;63859;51.064;4.580;2023-11-19T03:42:40;33.85;;;5.03;;
75261;SDS011;63859;51.064;4.580;2023-11-19T03:45:06;17.10;;;4.13;;
75261;SDS011;63859;51.064;4.580;2023-11-19T03:47:35;30.52;;;4.50;;
75261;SDS011;63859;51.064;4.580;2023-11-19T03:50:01;28.27;;;4.97;;
75261;SDS011;63859;51.064;4.580;2023-11-19T03:52:27;33.67;;;4.78;;
75261;SDS011;63859;51.064;4.580;2023-11-19T03:54:54;31.48;;;5.35;;
75261;SDS011;63859;51.064;4.580;2023-11-19T03:57:20;32.75;;;5.10;;
75261;SDS011;63859;51.064;4.580;2023-11-19T03:59:46;27.75;;;4.43;;
75261;SDS011;63859;51.064;4.580;2023-11-19T04:02:12;38.88;;;4.53;;
75261;SDS011;63859;51.064;4.580;2023-11-19T04:04:37;34.80;;;5.05;;
75261;SDS011;63859;51.064;4.580;2023-11-19T04:07:06;29.75;;;5.13;;
75261;SDS011;63859;51.064;4.580;2023-11-19T04:09:31;26.80;;;4.82;;
75261;SDS011;63859;51.064;4.580;2023-11-19T04:12:02;30.33;;;4.30;;
75261;SDS011;63859;51.064;4.580;2023-11-19T04:14:28;30.60;;;5.03;;
75261;SDS011;63859;51.064;4.580;2023-11-19T04:16:54;32.10;;;4.78;;
75261;SDS011;63859;51.064;4.580;2023-11-19T04:19:20;30.30;;;5.18;;
75261;SDS011;63859;51.064;4.580;2023-11-19T04:21:47;31.83;;;5.03;;
75261;SDS011;63859;51.064;4.580;2023-11-19T04:24:12;37.63;;;4.90;;
75261;SDS011;63859;51.064;4.580;2023-11-19T04:26:42;31.98;;;5.22;;
75261;SDS011;63859;51.064;4.580;2023-11-19T04:29:10;30.45;;;4.78;;
75261;SDS011;63859;51.064;4.580;2023-11-19T04:31:37;33.42;;;5.03;;
75261;SDS011;63859;51.064;4.580;2023-11-19T04:34:02;32.33;;;5.40;;
75261;SDS011;63859;51.064;4.580;2023-11-19T04:36:28;28.35;;;5.45;;
75261;SDS011;63859;51.064;4.580;2023-11-19T04:38:54;30.88;;;5.60;;
75261;SDS011;63859;51.064;4.580;2023-11-19T04:41:20;29.75;;;5.60;;
75261;SDS011;63859;51.064;4.580;2023-11-19T04:43:46;34.53;;;5.85;;
75261;SDS011;63859;51.064;4.580;2023-11-19T04:46:12;31.70;;;5.00;;
75261;SDS011;63859;51.064;4.580;2023-11-19T04:48:37;29.17;;;5.25;;
75261;SDS011;63859;51.064;4.580;2023-11-19T04:51:06;38.47;;;5.82;;
75261;SDS011;63859;51.064;4.580;2023-11-19T04:53:34;34.65;;;5.93;;
75261;SDS011;63859;51.064;4.580;2023-11-19T04:56:00;34.42;;;5.20;;
75261;SDS011;63859;51.064;4.580;2023-11-19T04:58:25;39.08;;;5.50;;
75261;SDS011;63859;51.064;4.580;2023-11-19T05:00:54;32.92;;;6.03;;
75261;SDS011;63859;51.064;4.580;2023-11-19T05:03:19;30.25;;;5.55;;
75261;SDS011;63859;51.064;4.580;2023-11-19T05:05:45;34.00;;;5.05;;
75261;SDS011;63859;51.064;4.580;2023-11-19T05:08:10;33.67;;;5.00;;
75261;SDS011;63859;51.064;4.580;2023-11-19T05:10:36;33.88;;;5.50;;
75261;SDS011;63859;51.064;4.580;2023-11-19T05:13:02;26.50;;;5.40;;
75261;SDS011;63859;51.064;4.580;2023-11-19T05:15:27;38.28;;;5.88;;
75261;SDS011;63859;51.064;4.580;2023-11-19T05:17:53;36.75;;;5.68;;
75261;SDS011;63859;51.064;4.580;2023-11-19T05:20:19;35.50;;;5.22;;
75261;SDS011;63859;51.064;4.580;2023-11-19T05:22:44;28.23;;;5.47;;
75261;SDS011;63859;51.064;4.580;2023-11-19T05:25:10;43.73;;;5.87;;
75261;SDS011;63859;51.064;4.580;2023-11-19T05:27:37;39.35;;;6.35;;
75261;SDS011;63859;51.064;4.580;2023-11-19T05:30:04;46.33;;;6.38;;
75261;SDS011;63859;51.064;4.580;2023-11-19T05:32:32;35.55;;;5.75;;
75261;SDS011;63859;51.064;4.580;2023-11-19T05:34:58;39.70;;;5.90;;
75261;SDS011;63859;51.064;4.580;2023-11-19T05:37:24;41.70;;;6.05;;
75261;SDS011;63859;51.064;4.580;2023-11-19T05:39:50;34.70;;;5.85;;
75261;SDS011;63859;51.064;4.580;2023-11-19T05:42:16;36.93;;;5.90;;
75261;SDS011;63859;51.064;4.580;2023-11-19T05:44:42;38.15;;;6.57;;
75261;SDS011;63859;51.064;4.580;2023-11-19T05:47:07;30.05;;;6.25;;
75261;SDS011;63859;51.064;4.580;2023-11-19T05:49:33;43.88;;;5.82;;
75261;SDS011;63859;51.064;4.580;2023-11-19T05:51:59;28.92;;;5.75;;
75261;SDS011;63859;51.064;4.580;2023-11-19T05:54:26;41.93;;;6.40;;
75261;SDS011;63859;51.064;4.580;2023-11-19T05:56:52;34.90;;;5.53;;
75261;SDS011;63859;51.064;4.580;2023-11-19T05:59:19;33.10;;;6.22;;
75261;SDS011;63859;51.064;4.580;2023-11-19T06:01:45;36.30;;;6.45;;
75261;SDS011;63859;51.064;4.580;2023-11-19T06:04:11;44.35;;;7.22;;
75261;SDS011;63859;51.064;4.580;2023-11-19T06:06:37;43.63;;;6.68;;
75261;SDS011;63859;51.064;4.580;2023-11-19T06:09:03;39.78;;;6.03;;
75261;SDS011;63859;51.064;4.580;2023-11-19T06:11:29;39.67;;;5.95;;
75261;SDS011;63859;51.064;4.580;2023-11-19T06:13:55;35.60;;;6.13;;
75261;SDS011;63859;51.064;4.580;2023-11-19T06:16:21;38.93;;;6.20;;
75261;SDS011;63859;51.064;4.580;2023-11-19T06:18:47;53.03;;;7.27;;
75261;SDS011;63859;51.064;4.580;2023-11-19T06:21:12;39.43;;;6.30;;
75261;SDS011;63859;51.064;4.580;2023-11-19T06:23:38;41.35;;;6.53;;
75261;SDS011;63859;51.064;4.580;2023-11-19T06:26:04;39.40;;;6.22;;
75261;SDS011;63859;51.064;4.580;2023-11-19T06:28:30;36.90;;;5.78;;
75261;SDS011;63859;51.064;4.580;2023-11-19T06:30:56;41.90;;;6.53;;
75261;SDS011;63859;51.064;4.580;2023-11-19T06:33:23;33.47;;;5.55;;
75261;SDS011;63859;51.064;4.580;2023-11-19T06:35:49;38.37;;;6.50;;
75261;SDS011;63859;51.064;4.580;2023-11-19T06:38:15;43.73;;;6.40;;
75261;SDS011;63859;51.064;4.580;2023-11-19T06:40:41;39.97;;;5.20;;
75261;SDS011;63859;51.064;4.580;2023-11-19T06:43:06;31.58;;;5.45;;
75261;SDS011;63859;51.064;4.580;2023-11-19T06:45:34;38.80;;;6.83;;
75261;SDS011;63859;51.064;4.580;2023-11-19T06:48:03;42.08;;;6.00;;
75261;SDS011;63859;51.064;4.580;2023-11-19T06:50:30;36.30;;;5.65;;
75261;SDS011;63859;51.064;4.580;2023-11-19T06:52:56;49.13;;;7.40;;
75261;SDS011;63859;51.064;4.580;2023-11-19T06:55:21;36.73;;;5.47;;
75261;SDS011;63859;51.064;4.580;2023-11-19T06:57:47;40.35;;;6.22;;
75261;SDS011;63859;51.064;4.580;2023-11-19T07:00:12;34.85;;;6.20;;
75261;SDS011;63859;51.064;4.580;2023-11-19T07:02:38;35.20;;;5.37;;
75261;SDS011;63859;51.064;4.580;2023-11-19T07:05:04;34.93;;;6.10;;
75261;SDS011;63859;51.064;4.580;2023-11-19T07:07:31;31.67;;;6.50;;
75261;SDS011;63859;51.064;4.580;2023-11-19T07:09:57;38.70;;;5.78;;
75261;SDS011;63859;51.064;4.580;2023-11-19T07:12:23;40.87;;;6.50;;
75261;SDS011;63859;51.064;4.580;2023-11-19T07:14:51;38.97;;;7.03;;
75261;SDS011;63859;51.064;4.580;2023-11-19T07:17:18;36.47;;;6.07;;
75261;SDS011;63859;51.064;4.580;2023-11-19T07:19:45;41.40;;;6.43;;
75261;SDS011;63859;51.064;4.580;2023-11-19T07:22:11;33.35;;;5.90;;
75261;SDS011;63859;51.064;4.580;2023-11-19T07:24:38;42.80;;;5.82;;
75261;SDS011;63859;51.064;4.580;2023-11-19T07:27:05;38.47;;;6.03;;
75261;SDS011;63859;51.064;4.580;2023-11-19T07:29:31;39.43;;;7.30;;
75261;SDS011;63859;51.064;4.580;2023-11-19T07:31:57;46.57;;;6.17;;
75261;SDS011;63859;51.064;4.580;2023-11-19T07:34:23;40.70;;;6.03;;
75261;SDS011;63859;51.064;4.580;2023-11-19T07:36:49;35.33;;;6.18;;
75261;SDS011;63859;51.064;4.580;2023-11-19T07:39:15;44.17;;;6.27;;
75261;SDS011;63859;51.064;4.580;2023-11-19T07:41:41;34.03;;;6.63;;
75261;SDS011;63859;51.064;4.580;2023-11-19T07:44:06;31.73;;;5.93;;
75261;SDS011;63859;51.064;4.580;2023-11-19T07:46:32;35.50;;;6.33;;
75261;SDS011;63859;51.064;4.580;2023-11-19T07:48:58;44.83;;;6.53;;
75261;SDS011;63859;51.064;4.580;2023-11-19T07:51:23;34.50;;;6.10;;
75261;SDS011;63859;51.064;4.580;2023-11-19T07:53:49;42.97;;;6.73;;
75261;SDS011;63859;51.064;4.580;2023-11-19T07:56:15;26.37;;;4.57;;
75261;SDS011;63859;51.064;4.580;2023-11-19T07:58:40;45.30;;;6.65;;
75261;SDS011;63859;51.064;4.580;2023-11-19T08:01:06;35.20;;;8.20;;
75261;SDS011;63859;51.064;4.580;2023-11-19T08:03:32;44.38;;;6.57;;
75261;SDS011;63859;51.064;4.580;2023-11-19T08:06:01;31.52;;;5.95;;
75261;SDS011;63859;51.064;4.580;2023-11-19T08:08:28;40.60;;;5.47;;
75261;SDS011;63859;51.064;4.580;2023-11-19T08:10:58;37.40;;;5.97;;
75261;SDS011;63859;51.064;4.580;2023-11-19T08:13:24;35.55;;;6.22;;
75261;SDS011;63859;51.064;4.580;2023-11-19T08:15:50;35.70;;;5.50;;
75261;SDS011;63859;51.064;4.580;2023-11-19T08:18:16;35.35;;;6.35;;
75261;SDS011;63859;51.064;4.580;2023-11-19T08:20:43;42.50;;;6.13;;
75261;SDS011;63859;51.064;4.580;2023-11-19T08:23:09;30.05;;;4.85;;
75261;SDS011;63859;51.064;4.580;2023-11-19T08:25:35;33.75;;;5.05;;
75261;SDS011;63859;51.064;4.580;2023-11-19T08:28:01;30.58;;;5.95;;
75261;SDS011;63859;51.064;4.580;2023-11-19T08:30:28;36.67;;;5.93;;
75261;SDS011;63859;51.064;4.580;2023-11-19T08:32:55;36.23;;;5.93;;
75261;SDS011;63859;51.064;4.580;2023-11-19T08:35:21;35.45;;;5.95;;
75261;SDS011;63859;51.064;4.580;2023-11-19T08:37:46;43.40;;;5.03;;
75261;SDS011;63859;51.064;4.580;2023-11-19T08:40:12;25.42;;;5.40;;
75261;SDS011;63859;51.064;4.580;2023-11-19T08:42:40;38.03;;;5.13;;
75261;SDS011;63859;51.064;4.580;2023-11-19T08:45:06;30.90;;;5.07;;
75261;SDS011;63859;51.064;4.580;2023-11-19T08:47:35;35.20;;;6.03;;
75261;SDS011;63859;51.064;4.580;2023-11-19T08:50:01;38.13;;;5.53;;
75261;SDS011;63859;51.064;4.580;2023-11-19T08:52:26;33.28;;;5.82;;
75261;SDS011;63859;51.064;4.580;2023-11-19T08:54:52;32.90;;;4.80;;
75261;SDS011;63859;51.064;4.580;2023-11-19T08:57:17;34.15;;;5.15;;
75261;SDS011;63859;51.064;4.580;2023-11-19T08:59:44;34.13;;;5.07;;
75261;SDS011;63859;51.064;4.580;2023-11-19T09:02:10;28.63;;;5.03;;
75261;SDS011;63859;51.064;4.580;2023-11-19T09:04:36;31.65;;;4.90;;
75261;SDS011;63859;51.064;4.580;2023-11-19T09:07:02;21.10;;;4.80;;
75261;SDS011;63859;51.064;4.580;2023-11-19T09:09:28;38.03;;;4.85;;
75261;SDS011;63859;51.064;4.580;2023-11-19T09:11:54;21.92;;;4.78;;
75261;SDS011;63859;51.064;4.580;2023-11-19T09:14:20;26.23;;;4.45;;
75261;SDS011;63859;51.064;4.580;2023-11-19T09:16:50;34.55;;;5.20;;
75261;SDS011;63859;51.064;4.580;2023-11-19T09:19:16;32.72;;;5.32;;
75261;SDS011;63859;51.064;4.580;2023-11-19T09:21:42;31.27;;;5.03;;
75261;SDS011;63859;51.064;4.580;2023-11-19T09:24:08;28.02;;;4.65;;
75261;SDS011;63859;51.064;4.580;2023-11-19T09:26:34;26.10;;;4.57;;
75261;SDS011;63859;51.064;4.580;2023-11-19T09:29:01;26.00;;;4.35;;
75261;SDS011;63859;51.064;4.580;2023-11-19T09:31:27;27.88;;;5.28;;
75261;SDS011;63859;51.064;4.580;2023-11-19T09:33:52;36.25;;;5.28;;
75261;SDS011;63859;51.064;4.580;2023-11-19T09:36:18;25.17;;;4.32;;
75261;SDS011;63859;51.064;4.580;2023-11-19T09:38:44;25.33;;;4.70;;
75261;SDS011;63859;51.064;4.580;2023-11-19T09:41:10;29.38;;;5.10;;
75261;SDS011;63859;51.064;4.580;2023-11-19T09:43:39;34.60;;;5.13;;
75261;SDS011;63859;51.064;4.580;2023-11-19T09:46:06;32.20;;;5.82;;
75261;SDS011;63859;51.064;4.580;2023-11-19T09:48:36;33.75;;;6.60;;
75261;SDS011;63859;51.064;4.580;2023-11-19T09:51:06;34.78;;;5.15;;
75261;SDS011;63859;51.064;4.580;2023-11-19T09:53:33;29.10;;;5.55;;
75261;SDS011;63859;51.064;4.580;2023-11-19T09:56:00;29.23;;;5.05;;
75261;SDS011;63859;51.064;4.580;2023-11-19T09:58:28;27.85;;;4.72;;
75261;SDS011;63859;51.064;4.580;2023-11-19T10:00:55;25.35;;;4.78;;
75261;SDS011;63859;51.064;4.580;2023-11-19T10:03:20;23.50;;;4.13;;
75261;SDS011;63859;51.064;4.580;2023-11-19T10:05:48;24.40;;;4.72;;
75261;SDS011;63859;51.064;4.580;2023-11-19T10:08:14;28.30;;;4.70;;
75261;SDS011;63859;51.064;4.580;2023-11-19T10:10:39;26.50;;;4.10;;
75261;SDS011;63859;51.064;4.580;2023-11-19T10:13:05;27.80;;;4.78;;
75261;SDS011;63859;51.064;4.580;2023-11-19T10:15:35;27.90;;;4.00;;
75261;SDS011;63859;51.064;4.580;2023-11-19T10:18:02;19.30;;;4.07;;
75261;SDS011;63859;51.064;4.580;2023-11-19T10:20:34;26.38;;;4.50;;
75261;SDS011;63859;51.064;4.580;2023-11-19T10:23:01;19.27;;;4.22;;
75261;SDS011;63859;51.064;4.580;2023-11-19T10:25:27;28.38;;;4.57;;
75261;SDS011;63859;51.064;4.580;2023-11-19T10:27:54;25.88;;;4.97;;
75261;SDS011;63859;51.064;4.580;2023-11-19T10:30:21;27.80;;;4.90;;
75261;SDS011;63859;51.064;4.580;2023-11-19T10:33:10;31.98;;;5.63;;
75261;SDS011;63859;51.064;4.580;2023-11-19T10:35:35;20.88;;;5.28;;
75261;SDS011;63859;51.064;4.580;2023-11-19T10:38:14;25.27;;;4.78;;
75261;SDS011;63859;51.064;4.580;2023-11-19T10:40:40;26.67;;;4.80;;
75261;SDS011;63859;51.064;4.580;2023-11-19T10:43:06;35.15;;;4.20;;
75261;SDS011;63859;51.064;4.580;2023-11-19T10:45:33;24.35;;;4.45;;
75261;SDS011;63859;51.064;4.580;2023-11-19T10:47:59;26.42;;;4.78;;
75261;SDS011;63859;51.064;4.580;2023-11-19T10:50:26;28.95;;;5.35;;
75261;SDS011;63859;51.064;4.580;2023-11-19T10:52:55;25.40;;;5.00;;
75261;SDS011;63859;51.064;4.580;2023-11-19T10:55:27;28.17;;;4.75;;
75261;SDS011;63859;51.064;4.580;2023-11-19T10:57:58;23.98;;;4.85;;
75261;SDS011;63859;51.064;4.580;2023-11-19T11:00:29;31.95;;;4.68;;
75261;SDS011;63859;51.064;4.580;2023-11-19T11:03:03;28.00;;;4.70;;
75261;SDS011;63859;51.064;4.580;2023-11-19T11:05:36;27.88;;;4.90;;
75261;SDS011;63859;51.064;4.580;2023-11-19T11:08:04;28.65;;;4.55;;
75261;SDS011;63859;51.064;4.580;2023-11-19T11:10:31;29.77;;;5.35;;
75261;SDS011;63859;51.064;4.580;2023-11-19T11:13:02;30.25;;;4.47;;
75261;SDS011;63859;51.064;4.580;2023-11-19T11:15:29;37.58;;;4.80;;
75261;SDS011;63859;51.064;4.580;2023-11-19T11:17:58;24.67;;;4.60;;
75261;SDS011;63859;51.064;4.580;2023-11-19T11:20:32;30.08;;;3.97;;
75261;SDS011;63859;51.064;4.580;2023-11-19T11:39:35;19.80;;;4.78;;
75261;SDS011;63859;51.064;4.580;2023-11-19T11:50:14;28.40;;;5.28;;
75261;SDS011;63859;51.064;4.580;2023-11-19T11:57:59;27.00;;;4.57;;
75261;SDS011;63859;51.064;4.580;2023-11-19T12:00:31;27.48;;;4.82;;
75261;SDS011;63859;51.064;4.580;2023-11-19T12:03:01;22.42;;;4.07;;
75261;SDS011;63859;51.064;4.580;2023-11-19T12:05:29;18.40;;;3.60;;
75261;SDS011;63859;51.064;4.580;2023-11-19T12:07:55;20.88;;;4.47;;
75261;SDS011;63859;51.064;4.580;2023-11-19T12:10:29;33.03;;;5.35;;
75261;SDS011;63859;51.064;4.580;2023-11-19T12:13:16;20.45;;;5.10;;
75261;SDS011;63859;51.064;4.580;2023-11-19T12:18:28;33.33;;;5.15;;
75261;SDS011;63859;51.064;4.580;2023-11-19T12:20:55;31.35;;;5.57;;
75261;SDS011;63859;51.064;4.580;2023-11-19T12:23:22;25.20;;;4.95;;
75261;SDS011;63859;51.064;4.580;2023-11-19T12:25:48;30.77;;;5.22;;
75261;SDS011;63859;51.064;4.580;2023-11-19T12:28:14;32.10;;;5.50;;
75261;SDS011;63859;51.064;4.580;2023-11-19T12:30:44;31.38;;;5.78;;
75261;SDS011;63859;51.064;4.580;2023-11-19T12:33:11;33.15;;;6.15;;
75261;SDS011;63859;51.064;4.580;2023-11-19T12:35:40;28.05;;;5.07;;
75261;SDS011;63859;51.064;4.580;2023-11-19T12:38:07;28.83;;;4.68;;
75261;SDS011;63859;51.064;4.580;2023-11-19T12:40:32;23.98;;;4.50;;
75261;SDS011;63859;51.064;4.580;2023-11-19T12:42:58;25.70;;;4.55;;
75261;SDS011;63859;51.064;4.580;2023-11-19T12:45:25;26.92;;;4.47;;
75261;SDS011;63859;51.064;4.580;2023-11-19T12:48:06;22.85;;;4.38;;
75261;SDS011;63859;51.064;4.580;2023-11-19T12:53:22;25.10;;;3.70;;
75261;SDS011;63859;51.064;4.580;2023-11-19T12:55:49;21.98;;;4.88;;
75261;SDS011;63859;51.064;4.580;2023-11-19T12:58:29;14.77;;;3.80;;
75261;SDS011;63859;51.064;4.580;2023-11-19T13:00:59;19.42;;;4.72;;
75261;SDS011;63859;51.064;4.580;2023-11-19T13:03:29;20.20;;;3.65;;
75261;SDS011;63859;51.064;4.580;2023-11-19T13:06:06;21.50;;;3.50;;
75261;SDS011;63859;51.064;4.580;2023-11-19T13:08:45;28.13;;;4.40;;
75261;SDS011;63859;51.064;4.580;2023-11-19T13:11:13;26.50;;;4.38;;
75261;SDS011;63859;51.064;4.580;2023-11-19T13:13:55;22.63;;;4.28;;
75261;SDS011;63859;51.064;4.580;2023-11-19T13:16:29;27.08;;;4.57;;
75261;SDS011;63859;51.064;4.580;2023-11-19T13:18:55;20.63;;;4.28;;
75261;SDS011;63859;51.064;4.580;2023-11-19T13:21:22;26.80;;;4.28;;
75261;SDS011;63859;51.064;4.580;2023-11-19T13:23:48;26.75;;;5.15;;
75261;SDS011;63859;51.064;4.580;2023-11-19T13:26:15;30.05;;;4.82;;
75261;SDS011;63859;51.064;4.580;2023-11-19T13:28:41;25.50;;;4.60;;
75261;SDS011;63859;51.064;4.580;2023-11-19T13:31:07;36.13;;;5.38;;
75261;SDS011;63859;51.064;4.580;2023-11-19T13:33:32;31.70;;;5.45;;
75261;SDS011;63859;51.064;4.580;2023-11-19T13:35:59;23.33;;;5.18;;
75261;SDS011;63859;51.064;4.580;2023-11-19T13:38:30;26.80;;;5.63;;
75261;SDS011;63859;51.064;4.580;2023-11-19T13:40:56;34.65;;;5.53;;
75261;SDS011;63859;51.064;4.580;2023-11-19T13:43:22;31.70;;;5.90;;
75261;SDS011;63859;51.064;4.580;2023-11-19T13:45:48;25.05;;;4.38;;
75261;SDS011;63859;51.064;4.580;2023-11-19T13:48:13;25.50;;;4.35;;
75261;SDS011;63859;51.064;4.580;2023-11-19T13:50:39;31.05;;;4.88;;
75261;SDS011;63859;51.064;4.580;2023-11-19T13:53:04;29.98;;;6.28;;
75261;SDS011;63859;51.064;4.580;2023-11-19T13:55:30;27.38;;;6.55;;
75261;SDS011;63859;51.064;4.580;2023-11-19T13:57:56;27.58;;;4.60;;
75261;SDS011;63859;51.064;4.580;2023-11-19T14:00:21;26.52;;;5.35;;
75261;SDS011;63859;51.064;4.580;2023-11-19T14:02:49;25.55;;;5.50;;
75261;SDS011;63859;51.064;4.580;2023-11-19T14:05:14;23.80;;;4.30;;
75261;SDS011;63859;51.064;4.580;2023-11-19T14:07:42;27.40;;;4.35;;
75261;SDS011;63859;51.064;4.580;2023-11-19T14:10:08;23.45;;;4.30;;
75261;SDS011;63859;51.064;4.580;2023-11-19T14:12:36;19.90;;;4.05;;
75261;SDS011;63859;51.064;4.580;2023-11-19T14:15:08;20.77;;;4.80;;
75261;SDS011;63859;51.064;4.580;2023-11-19T14:17:35;20.08;;;4.00;;
75261;SDS011;63859;51.064;4.580;2023-11-19T14:20:01;28.55;;;5.25;;
75261;SDS011;63859;51.064;4.580;2023-11-19T14:22:38;27.10;;;4.53;;
75261;SDS011;63859;51.064;4.580;2023-11-19T14:25:07;34.13;;;4.85;;
75261;SDS011;63859;51.064;4.580;2023-11-19T14:27:35;13.77;;;3.78;;
75261;SDS011;63859;51.064;4.580;2023-11-19T14:30:08;23.13;;;5.10;;
75261;SDS011;63859;51.064;4.580;2023-11-19T14:32:39;26.98;;;5.78;;
75261;SDS011;63859;51.064;4.580;2023-11-19T14:35:12;24.10;;;4.95;;
75261;SDS011;63859;51.064;4.580;2023-11-19T14:37:37;26.30;;;4.43;;
75261;SDS011;63859;51.064;4.580;2023-11-19T14:40:03;26.70;;;5.20;;
75261;SDS011;63859;51.064;4.580;2023-11-19T14:42:30;30.15;;;5.10;;
75261;SDS011;63859;51.064;4.580;2023-11-19T14:44:56;28.23;;;4.87;;
75261;SDS011;63859;51.064;4.580;2023-11-19T14:47:22;27.35;;;4.55;;
75261;SDS011;63859;51.064;4.580;2023-11-19T14:49:48;29.38;;;5.45;;
75261;SDS011;63859;51.064;4.580;2023-11-19T14:52:13;28.88;;;5.32;;
75261;SDS011;63859;51.064;4.580;2023-11-19T14:54:39;30.35;;;5.45;;
75261;SDS011;63859;51.064;4.580;2023-11-19T14:57:05;28.88;;;5.57;;
75261;SDS011;63859;51.064;4.580;2023-11-19T14:59:33;26.83;;;6.07;;
75261;SDS011;63859;51.064;4.580;2023-11-19T15:01:59;28.88;;;5.53;;
75261;SDS011;63859;51.064;4.580;2023-11-19T15:04:25;26.88;;;4.60;;
75261;SDS011;63859;51.064;4.580;2023-11-19T15:06:51;17.13;;;4.43;;
75261;SDS011;63859;51.064;4.580;2023-11-19T15:09:17;22.83;;;4.45;;
75261;SDS011;63859;51.064;4.580;2023-11-19T15:11:44;33.40;;;5.00;;